Portada
METAR-TAF:

METAR-TAF

Aeroports :

Vitòria, Espanya

latitud: 42-53N, longitud: 002-43W, altitud: 513 m

Observació

L'informe es va fer fa 29 minuts, a les 19:30 UTC
Vent 10 kt del Nord/Nord-Est, variant entre Nord i Est/Nord-Est
Temperatura 2°C
Humitat 75%
Pressió 1032 hPa
Visibilitat 10 km o més
Cel ennuvolat a una alçada de 2500 ft

METAR: LEVT 201930Z 02010KT 350V060 9999 BKN025 02/M02 Q1032

Hora: 20:59 (19:59 UTC)

Pronòstic

L'informe es va fer fa 2 hores i 59 minuts, a les 17:00 UTC
Pronòstic vàlid del 20 a les 18 UTC al 21 a les 18 UTC
Vent 9 kt del Nord/Nord-Est
Visibilitat 10 km o més
Cel ennuvolat a una alçada de 2000 ft
Cel ennuvolat a una alçada de 3000 ft
Temporalment
l' 21 a les 03 UTC al 21 a les 18 UTC
Visibilitat: 3000 m
Cel ennuvolat a una alçada de 500 ft
pluja, neu

TAF: LEVT 201700Z 2018/2118 02009KT 9999 BKN020 BKN030 TX03/2114Z TNM00/2103Z TEMPO 2103/2118 3000 -RASN BKN005

Observacions i pronòstics meteorològics de més de 4000 aeroports (METAR i TAF).

Les estacions disponibles són els punts grocs i vermells al mapa.

Posi el ratolí al punt desitjat per veure el nom de l'estació.

Feu clic per veure les observacions i els pronòstics meteorològics.

Per canviar el mapa: feu clic els botons verds amb una creu de color negre per apropar; al botó verd amb un guió per allunyar la imatge; o en les fletxes verdes per a mapes adjacents.


METAR-TAF: